Time;durP1;ratioP1;P1;durP2;ratioP2;P2;SDS_P1;SDS_P2;PMS_P1;PMS_P2;Temp;Humidity;BMP_temperature;BMP_pressure;BME280_temperature;BME280_humidity;BME280_pressure;Samples;Min_cycle;Max_cycle;Signal;HPM_P1;HPM_P2
2023/02/01 00:01:44;;;;;;;2.78;1.88;;;7.90;79.60;;;;;;5077475;28;20035;-80
2023/02/01 00:04:10;;;;;;;3.72;2.10;;;7.90;79.60;;;;;;5060416;28;20020;-80
2023/02/01 00:06:36;;;;;;;3.55;2.20;;;7.90;79.60;;;;;;5060763;28;20044;-80
2023/02/01 00:09:01;;;;;;;2.90;1.85;;;7.90;79.60;;;;;;5077665;28;20126;-80
2023/02/01 00:11:27;;;;;;;2.85;1.95;;;7.90;79.70;;;;;;5078039;28;20032;-79
2023/02/01 00:13:53;;;;;;;3.13;1.70;;;7.90;79.60;;;;;;5061265;28;20018;-80
2023/02/01 00:16:22;;;;;;;3.17;2.10;;;7.90;79.60;;;;;;5077201;28;20345;-80
2023/02/01 00:18:50;;;;;;;3.05;1.65;;;7.90;79.60;;;;;;5076888;28;20358;-80
2023/02/01 00:21:19;;;;;;;3.30;2.00;;;7.90;79.60;;;;;;5077101;28;20031;-80
2023/02/01 00:23:45;;;;;;;3.55;1.75;;;7.90;79.60;;;;;;5077216;28;20417;-80
2023/02/01 00:26:15;;;;;;;3.28;2.05;;;7.80;79.50;;;;;;5095161;28;20114;-80
2023/02/01 00:28:41;;;;;;;2.85;1.83;;;7.90;79.60;;;;;;5094897;28;20020;-80
2023/02/01 00:31:07;;;;;;;2.67;1.65;;;7.80;79.50;;;;;;5077095;28;20516;-80
2023/02/01 00:33:33;;;;;;;3.97;1.88;;;7.90;79.60;;;;;;5060245;28;20055;-80
2023/02/01 00:36:02;;;;;;;3.28;1.80;;;7.90;79.60;;;;;;5077540;28;20032;-80
2023/02/01 00:38:29;;;;;;;3.30;1.85;;;7.80;79.50;;;;;;5076956;28;20038;-79
2023/02/01 00:41:02;;;;;;;3.70;1.90;;;7.80;79.50;;;;;;5094742;28;20504;-80
2023/02/01 00:43:28;;;;;;;2.97;2.15;;;7.80;79.50;;;;;;5095127;28;20020;-79
2023/02/01 00:45:54;;;;;;;6.32;2.20;;;7.80;79.50;;;;;;5059861;28;20081;-80
2023/02/01 00:48:19;;;;;;;3.25;1.73;;;7.80;79.50;;;;;;5094558;28;20056;-80
2023/02/01 00:50:45;;;;;;;6.10;2.10;;;7.80;79.50;;;;;;5060274;28;20029;-79
2023/02/01 00:53:11;;;;;;;4.25;1.98;;;7.80;79.50;;;;;;5059760;28;20045;-80
2023/02/01 00:55:37;;;;;;;4.85;1.85;;;7.80;79.50;;;;;;5076962;28;20066;-80
2023/02/01 00:58:05;;;;;;;3.55;1.80;;;7.80;79.50;;;;;;5059774;28;20031;-79
2023/02/01 01:00:32;;;;;;;3.00;1.88;;;7.80;79.60;;;;;;5076481;28;20032;-81
2023/02/01 01:02:58;;;;;;;3.15;1.80;;;7.80;79.60;;;;;;5094577;28;20020;-80
2023/02/01 01:05:24;;;;;;;4.13;2.00;;;7.80;80.20;;;;;;5076316;28;20031;-80
2023/02/01 01:07:49;;;;;;;3.75;2.22;;;7.80;79.60;;;;;;5059520;28;20050;-80
2023/02/01 01:10:16;;;;;;;3.58;1.83;;;7.80;79.50;;;;;;5076349;28;20028;-79
2023/02/01 01:12:41;;;;;;;3.63;1.80;;;7.70;79.50;;;;;;5076820;28;20032;-79
2023/02/01 01:15:08;;;;;;;3.33;1.77;;;7.70;79.60;;;;;;5076397;28;20077;-80
2023/02/01 01:17:33;;;;;;;4.50;2.10;;;7.70;79.60;;;;;;5059600;28;20104;-79
2023/02/01 01:19:59;;;;;;;3.10;1.60;;;7.70;79.60;;;;;;5076118;28;20115;-79
2023/02/01 01:22:25;;;;;;;3.45;1.90;;;7.70;79.70;;;;;;5059985;28;20028;-80
2023/02/01 01:24:51;;;;;;;5.00;1.90;;;7.70;79.70;;;;;;5059697;28;20495;-79
2023/02/01 01:27:22;;;;;;;4.18;1.90;;;7.70;79.70;;;;;;5059903;28;20036;-80
2023/02/01 01:29:49;;;;;;;3.10;2.00;;;7.70;79.70;;;;;;5059545;28;20040;-80
2023/02/01 01:32:14;;;;;;;3.83;1.90;;;7.70;79.70;;;;;;5059174;28;20036;-80
2023/02/01 01:34:40;;;;;;;4.10;2.50;;;7.70;79.70;;;;;;5075613;28;20059;-80
2023/02/01 01:37:06;;;;;;;2.90;1.70;;;7.70;79.70;;;;;;5059516;28;20106;-80
2023/02/01 01:39:32;;;;;;;2.85;1.88;;;7.70;79.70;;;;;;5075866;28;20135;-80
2023/02/01 01:41:58;;;;;;;3.67;2.40;;;7.60;79.70;;;;;;5076094;28;20495;-80
2023/02/01 01:45:01;;;;;;;2.25;1.55;;;7.60;79.70;;;;;;5075609;28;20032;-79
2023/02/01 01:47:41;;;;;;;4.47;2.10;;;7.70;79.80;;;;;;5059187;28;20036;-79
2023/02/01 01:50:12;;;;;;;3.67;1.90;;;7.60;79.70;;;;;;5076010;28;20028;-78
2023/02/01 01:52:41;;;;;;;4.38;2.25;;;7.60;79.70;;;;;;5076292;28;20153;-79
2023/02/01 01:55:08;;;;;;;2.97;1.80;;;7.60;79.70;;;;;;5059217;28;20077;-79
2023/02/01 01:57:39;;;;;;;4.07;2.00;;;7.60;79.70;;;;;;5059096;28;20369;-79
2023/02/01 02:00:12;;;;;;;3.10;1.90;;;7.60;79.70;;;;;;5075858;28;20085;-79
2023/02/01 02:02:43;;;;;;;2.72;1.90;;;7.60;79.70;;;;;;5076019;28;20036;-78
2023/02/01 02:05:10;;;;;;;3.45;1.90;;;7.60;79.70;;;;;;5075578;28;20078;-79
2023/02/01 02:07:39;;;;;;;4.38;1.80;;;7.60;79.70;;;;;;5058525;28;20461;-79
2023/02/01 02:10:10;;;;;;;4.35;1.90;;;7.60;79.70;;;;;;5075828;28;20043;-79
2023/02/01 02:12:40;;;;;;;2.53;1.75;;;7.60;79.70;;;;;;5059174;28;20055;-79
2023/02/01 02:15:07;;;;;;;2.50;1.70;;;7.60;79.70;;;;;;5076216;28;20073;-79
2023/02/01 02:18:09;;;;;;;3.53;1.95;;;7.60;79.70;;;;;;5075489;28;20120;-80
2023/02/01 02:21:00;;;;;;;3.05;1.80;;;7.60;79.80;;;;;;5093709;28;20024;-78
2023/02/01 02:23:26;;;;;;;2.95;1.83;;;7.60;79.70;;;;;;5075794;28;20479;-79
2023/02/01 02:26:10;;;;;;;4.60;1.73;;;7.60;79.70;;;;;;5075422;28;20468;-79
2023/02/01 02:28:49;;;;;;;2.75;1.83;;;7.60;79.70;;;;;;5076327;28;20512;-79
2023/02/01 02:31:56;;;;;;;3.72;1.80;;;7.60;79.80;;;;;;5075628;28;20032;-80
2023/02/01 02:34:32;;;;;;;3.72;1.70;;;7.60;79.80;;;;;;5074517;28;20119;-79
2023/02/01 02:37:23;;;;;;;2.50;1.50;;;7.60;79.70;;;;;;5059060;28;20032;-79
2023/02/01 02:40:06;;;;;;;3.75;2.00;;;7.60;79.80;;;;;;5075125;28;20036;-83
2023/02/01 02:48:44;;;;;;;2.85;1.80;;;7.60;79.90;;;;;;5079344;28;20051;-79
2023/02/01 03:05:46;;;;;;;1.73;1.55;;;7.50;79.80;;;;;;5079730;28;20128;-79
2023/02/01 03:08:25;;;;;;;3.85;1.77;;;7.50;79.80;;;;;;5078643;28;20373;-79
2023/02/01 03:11:03;;;;;;;2.97;1.88;;;7.50;79.80;;;;;;5079242;28;20115;-79
2023/02/01 03:13:39;;;;;;;2.22;1.50;;;7.50;79.80;;;;;;5062777;28;20036;-79
2023/02/01 03:16:18;;;;;;;2.47;2.10;;;7.50;79.80;;;;;;5061380;28;20035;-79
2023/02/01 03:19:12;;;;;;;2.20;1.60;;;7.50;79.80;;;;;;5079241;28;20115;-79
2023/02/01 03:21:40;;;;;;;2.63;1.50;;;7.50;79.80;;;;;;5078617;28;20036;-78
2023/02/01 03:24:12;;;;;;;2.72;1.73;;;7.60;79.80;;;;;;5061602;28;20496;-79
2023/02/01 03:26:43;;;;;;;3.75;1.67;;;7.50;79.80;;;;;;5078462;28;20059;-79
2023/02/01 03:29:14;;;;;;;4.50;1.80;;;7.50;79.80;;;;;;5078851;28;20031;-80
2023/02/01 03:31:42;;;;;;;4.03;1.70;;;7.50;79.80;;;;;;5078322;28;20032;-79
2023/02/01 03:34:08;;;;;;;3.63;1.80;;;7.60;79.80;;;;;;5061621;28;20025;-79
2023/02/01 03:36:52;;;;;;;3.60;1.55;;;7.50;79.80;;;;;;5077975;28;20039;-79
2023/02/01 03:39:52;;;;;;;2.42;1.70;;;7.50;79.80;;;;;;5077816;28;20051;-79
2023/02/01 03:42:27;;;;;;;3.58;1.80;;;7.60;79.90;;;;;;5077449;28;20051;-79
2023/02/01 03:45:21;;;;;;;2.08;1.50;;;7.50;79.90;;;;;;5078569;28;20055;-79
2023/02/01 03:47:53;;;;;;;3.77;1.90;;;7.50;79.80;;;;;;5062062;28;20043;-78
2023/02/01 03:50:23;;;;;;;2.60;1.50;;;7.50;79.80;;;;;;5077533;28;20020;-78
2023/02/01 03:52:54;;;;;;;3.90;1.90;;;7.50;79.80;;;;;;5077594;28;20032;-79
2023/02/01 03:55:23;;;;;;;3.92;1.88;;;7.50;79.90;;;;;;5077874;28;20062;-78
2023/02/01 03:58:02;;;;;;;2.63;1.90;;;7.50;79.90;;;;;;5077522;28;20521;-79
2023/02/01 04:00:28;;;;;;;3.33;1.73;;;7.50;79.90;;;;;;5078272;28;20132;-80
2023/02/01 04:02:56;;;;;;;3.67;1.90;;;7.50;79.80;;;;;;5078238;28;20020;-79
2023/02/01 04:05:22;;;;;;;3.20;1.75;;;7.50;79.80;;;;;;5060628;28;20035;-79
2023/02/01 04:07:58;;;;;;;3.17;1.90;;;7.50;79.80;;;;;;5077948;28;20025;-79
2023/02/01 04:10:25;;;;;;;3.40;2.00;;;7.50;79.80;;;;;;5095381;28;20039;-79
2023/02/01 04:12:50;;;;;;;3.80;1.85;;;7.50;79.80;;;;;;5077327;28;20024;-79
2023/02/01 04:15:16;;;;;;;4.18;1.85;;;7.50;79.80;;;;;;5077575;28;20130;-78
2023/02/01 04:17:42;;;;;;;2.80;1.80;;;7.50;79.80;;;;;;5094890;28;20460;-79
2023/02/01 04:20:08;;;;;;;3.53;1.80;;;7.50;79.80;;;;;;5095437;28;20035;-79
2023/02/01 04:22:34;;;;;;;4.72;2.28;;;7.50;79.80;;;;;;5060528;28;20061;-79
2023/02/01 04:25:00;;;;;;;2.80;1.77;;;7.60;79.90;;;;;;5076873;28;20107;-78
2023/02/01 04:27:26;;;;;;;4.25;1.75;;;7.50;79.80;;;;;;5077563;28;20410;-78
2023/02/01 04:29:51;;;;;;;3.63;1.75;;;7.60;79.80;;;;;;5094614;28;20024;-79
2023/02/01 04:32:19;;;;;;;3.10;1.77;;;7.60;79.80;;;;;;5077043;28;20032;-78
2023/02/01 04:34:45;;;;;;;4.10;1.70;;;7.50;79.80;;;;;;5077183;28;20350;-79
2023/02/01 04:37:11;;;;;;;2.78;1.80;;;7.50;79.80;;;;;;5060219;28;20123;-79
2023/02/01 04:39:37;;;;;;;4.00;1.80;;;7.60;79.80;;;;;;5076992;28;20046;-78
2023/02/01 04:42:03;;;;;;;2.22;1.77;;;7.60;79.80;;;;;;5076689;28;20097;-78
2023/02/01 04:44:29;;;;;;;4.32;1.75;;;7.50;79.80;;;;;;5094514;28;20032;-78
2023/02/01 04:46:54;;;;;;;4.72;2.00;;;7.50;79.80;;;;;;5076752;28;20044;-78
2023/02/01 04:49:21;;;;;;;3.78;2.03;;;7.50;79.80;;;;;;5076975;28;20418;-78
2023/02/01 04:51:47;;;;;;;3.53;1.60;;;7.60;79.80;;;;;;5076906;28;20028;-79
2023/02/01 04:54:13;;;;;;;4.13;1.88;;;7.60;79.80;;;;;;5093567;28;20059;-78
2023/02/01 04:56:39;;;;;;;3.40;1.60;;;7.50;79.80;;;;;;5094571;28;20060;-79
2023/02/01 04:59:06;;;;;;;2.55;1.83;;;7.60;79.80;;;;;;5076777;28;20024;-78
2023/02/01 05:01:31;;;;;;;4.38;2.00;;;7.60;79.80;;;;;;5076526;28;20024;-78
2023/02/01 05:03:57;;;;;;;3.88;1.75;;;7.60;79.80;;;;;;5059907;28;20076;-79
2023/02/01 05:06:23;;;;;;;3.60;1.60;;;7.60;79.90;;;;;;5076587;28;20110;-79
2023/02/01 05:08:49;;;;;;;4.72;1.90;;;7.60;79.90;;;;;;5076453;28;20035;-78
2023/02/01 05:14:00;;;;;;;3.92;1.85;;;7.60;79.90;;;;;;5094272;28;20082;-78
2023/02/01 05:16:26;;;;;;;2.85;1.70;;;7.60;79.80;;;;;;5076191;28;20028;-78
2023/02/01 05:18:52;;;;;;;3.90;1.90;;;7.60;79.80;;;;;;5094512;28;20060;-79
2023/02/01 05:21:18;;;;;;;4.35;1.85;;;7.60;79.80;;;;;;5094209;28;20078;-78
2023/02/01 05:26:28;;;;;;;3.53;1.83;;;7.60;79.80;;;;;;5093353;28;20066;-78
2023/02/01 05:28:54;;;;;;;3.88;1.73;;;7.60;79.70;;;;;;5059192;28;20028;-77
2023/02/01 05:31:20;;;;;;;3.67;1.77;;;7.60;79.80;;;;;;5059073;28;20038;-79
2023/02/01 05:33:45;;;;;;;3.13;1.80;;;7.60;79.80;;;;;;5075733;28;20017;-78
2023/02/01 05:36:11;;;;;;;3.97;1.90;;;7.60;79.80;;;;;;5092915;28;20035;-78
2023/02/01 05:38:37;;;;;;;5.50;2.17;;;7.70;79.80;;;;;;5076530;28;20039;-79
2023/02/01 05:41:03;;;;;;;3.47;1.95;;;7.70;79.80;;;;;;5058821;28;20082;-79
2023/02/01 05:43:28;;;;;;;3.85;1.80;;;7.70;79.80;;;;;;5076766;28;20076;-80
2023/02/01 05:45:54;;;;;;;2.88;1.90;;;7.70;79.80;;;;;;5076730;28;20055;-79
2023/02/01 05:48:20;;;;;;;3.22;1.83;;;7.70;79.80;;;;;;5059066;28;20062;-80
2023/02/01 05:50:46;;;;;;;3.42;1.73;;;7.70;79.70;;;;;;5075969;28;20032;-80
2023/02/01 05:53:12;;;;;;;3.58;1.83;;;7.70;79.70;;;;;;5075715;28;20032;-80
2023/02/01 05:55:38;;;;;;;3.78;1.95;;;7.70;79.70;;;;;;5093580;28;20028;-80
2023/02/01 05:58:05;;;;;;;4.22;2.10;;;7.80;79.90;;;;;;5093754;28;20028;-79
2023/02/01 06:00:31;;;;;;;3.83;2.08;;;7.80;79.90;;;;;;5058767;28;20456;-79
2023/02/01 06:02:57;;;;;;;3.97;1.85;;;7.80;79.90;;;;;;5076217;28;20028;-79
2023/02/01 06:05:23;;;;;;;2.47;1.70;;;7.80;79.80;;;;;;5075697;28;20027;-79
2023/02/01 06:07:49;;;;;;;6.55;2.17;;;7.80;79.80;;;;;;5075253;28;20036;-79
2023/02/01 06:10:16;;;;;;;3.97;1.73;;;7.80;79.80;;;;;;5094319;28;20029;-81
2023/02/01 06:12:42;;;;;;;4.40;1.88;;;7.80;79.80;;;;;;5076024;28;20020;-79
2023/02/01 06:15:08;;;;;;;3.13;2.00;;;7.80;79.80;;;;;;5076193;28;20056;-80
2023/02/01 06:17:34;;;;;;;2.78;1.60;;;7.80;79.80;;;;;;5095011;28;20054;-78
2023/02/01 06:20:00;;;;;;;4.10;2.10;;;7.90;79.90;;;;;;5062956;28;20033;-79
2023/02/01 06:22:26;;;;;;;3.92;1.75;;;7.90;79.90;;;;;;5080110;28;20016;-78
2023/02/01 06:24:51;;;;;;;3.90;1.90;;;7.90;79.90;;;;;;5079825;28;20029;-80
2023/02/01 06:27:17;;;;;;;6.13;2.00;;;7.90;79.80;;;;;;5079879;28;20036;-79
2023/02/01 06:29:43;;;;;;;4.32;2.15;;;7.90;79.90;;;;;;5079490;28;20036;-78
2023/02/01 06:32:10;;;;;;;3.65;1.90;;;7.90;79.80;;;;;;5062412;28;20040;-78
2023/02/01 06:34:37;;;;;;;3.60;1.70;;;7.90;79.80;;;;;;5079418;28;20115;-78
2023/02/01 06:37:02;;;;;;;4.07;2.05;;;7.90;79.80;;;;;;5079076;28;20055;-78
2023/02/01 06:39:28;;;;;;;4.40;2.40;;;7.90;79.80;;;;;;5078891;28;20511;-79
2023/02/01 06:41:54;;;;;;;3.63;2.28;;;8.00;79.90;;;;;;5097264;28;20047;-80
2023/02/01 06:44:20;;;;;;;2.97;1.73;;;7.90;79.80;;;;;;5063669;28;20036;-82
2023/02/01 06:46:46;;;;;;;3.65;1.58;;;8.00;79.90;;;;;;5062760;28;20472;-80
2023/02/01 06:49:12;;;;;;;3.20;1.65;;;8.00;79.80;;;;;;5079135;28;20123;-78
2023/02/01 06:51:37;;;;;;;5.07;1.95;;;8.00;79.90;;;;;;5078912;28;20028;-79
2023/02/01 06:54:03;;;;;;;3.13;1.95;;;8.00;79.90;;;;;;5096757;28;20136;-78
2023/02/01 06:56:31;;;;;;;3.30;2.00;;;8.00;79.90;;;;;;5079006;28;20035;-79
2023/02/01 06:58:57;;;;;;;3.75;1.83;;;8.00;79.90;;;;;;5062126;28;20465;-78
2023/02/01 07:01:22;;;;;;;5.20;2.05;;;8.00;79.80;;;;;;5062406;28;20035;-79
2023/02/01 07:03:51;;;;;;;3.35;1.67;;;8.00;79.90;;;;;;5078896;28;20036;-78
2023/02/01 07:06:17;;;;;;;3.63;2.10;;;8.10;80.00;;;;;;5061887;28;20024;-79
2023/02/01 07:08:43;;;;;;;4.38;2.13;;;8.00;79.90;;;;;;5078538;28;20100;-79
2023/02/01 07:11:12;;;;;;;3.75;1.80;;;8.00;79.90;;;;;;5062739;28;20032;-79
2023/02/01 07:13:38;;;;;;;2.80;2.00;;;8.00;79.90;;;;;;5078981;28;20024;-79
2023/02/01 07:16:07;;;;;;;3.05;1.83;;;8.10;80.00;;;;;;5078728;28;20020;-79
2023/02/01 07:18:33;;;;;;;5.85;2.10;;;8.10;80.00;;;;;;5078536;28;20085;-79
2023/02/01 07:20:59;;;;;;;5.20;2.30;;;8.10;80.00;;;;;;5078356;28;20024;-78
2023/02/01 07:23:26;;;;;;;3.92;1.90;;;8.10;80.00;;;;;;5095775;28;20040;-78
2023/02/01 07:25:56;;;;;;;5.75;2.33;;;8.10;80.00;;;;;;5078509;28;20031;-79
2023/02/01 07:28:23;;;;;;;4.60;1.95;;;8.10;80.00;;;;;;5077840;28;20050;-79
2023/02/01 07:30:50;;;;;;;4.47;2.28;;;8.10;80.00;;;;;;5095302;28;20115;-78
2023/02/01 07:33:21;;;;;;;3.65;1.92;;;8.10;80.00;;;;;;5078367;28;20107;-78
2023/02/01 07:35:48;;;;;;;3.92;1.90;;;8.10;80.00;;;;;;5078157;28;20060;-78
2023/02/01 07:38:14;;;;;;;4.75;2.25;;;8.10;80.00;;;;;;5078025;28;20086;-78
2023/02/01 07:40:40;;;;;;;4.22;2.10;;;8.20;80.00;;;;;;5078171;28;20036;-78
2023/02/01 07:43:08;;;;;;;4.07;1.92;;;8.20;80.00;;;;;;5077891;28;20052;-78
2023/02/01 07:45:35;;;;;;;6.30;1.77;;;8.20;80.00;;;;;;5078106;28;20109;-78
2023/02/01 07:48:01;;;;;;;5.18;1.83;;;8.20;80.10;;;;;;5077929;28;20423;-78
2023/02/01 07:50:27;;;;;;;3.08;1.83;;;8.20;80.10;;;;;;5077721;28;20115;-79
2023/02/01 07:52:53;;;;;;;2.63;1.50;;;8.20;80.00;;;;;;5062007;28;20109;-79
2023/02/01 07:55:20;;;;;;;4.38;1.67;;;8.20;80.00;;;;;;5078013;28;20034;-78
2023/02/01 07:57:46;;;;;;;4.70;1.77;;;8.20;80.10;;;;;;5078409;28;20046;-78
2023/02/01 08:03:00;;;;;;;5.68;2.15;;;8.20;80.00;;;;;;5077885;28;20067;-79
2023/02/01 08:05:27;;;;;;;5.20;1.98;;;8.20;80.10;;;;;;5077566;28;20051;-78
2023/02/01 08:07:52;;;;;;;4.18;2.20;;;8.20;80.10;;;;;;5095572;28;20036;-79
2023/02/01 08:10:19;;;;;;;5.85;2.40;;;8.20;80.10;;;;;;5077167;28;20031;-78
2023/02/01 08:12:47;;;;;;;3.20;1.83;;;8.20;80.10;;;;;;5077667;28;20028;-77
2023/02/01 08:15:16;;;;;;;3.75;1.90;;;8.20;80.10;;;;;;5077516;28;20414;-81
2023/02/01 08:17:49;;;;;;;3.15;1.80;;;8.20;80.10;;;;;;5077470;28;20043;-80
2023/02/01 08:20:15;;;;;;;5.50;2.35;;;8.20;80.10;;;;;;5077300;28;20056;-79
2023/02/01 08:22:40;;;;;;;4.03;1.90;;;8.20;80.00;;;;;;5060448;28;20032;-79
2023/02/01 08:25:07;;;;;;;4.22;1.90;;;8.20;80.10;;;;;;5076811;28;20020;-78
2023/02/01 08:27:33;;;;;;;3.65;1.92;;;8.20;80.10;;;;;;5060510;28;20040;-79
2023/02/01 08:29:59;;;;;;;2.95;1.73;;;8.30;80.10;;;;;;5077018;28;20080;-78
2023/02/01 08:32:25;;;;;;;3.95;1.92;;;8.30;80.10;;;;;;5076902;28;20115;-79
2023/02/01 08:34:51;;;;;;;1.95;1.70;;;8.30;80.10;;;;;;5077312;28;20035;-79
2023/02/01 08:37:17;;;;;;;2.92;1.65;;;8.30;80.10;;;;;;5060717;28;20384;-79
2023/02/01 08:39:46;;;;;;;4.90;2.33;;;8.30;80.10;;;;;;5076029;28;20035;-80
2023/02/01 08:44:57;;;;;;;5.05;2.25;;;8.30;80.10;;;;;;5094535;28;20085;-79
2023/02/01 08:47:23;;;;;;;2.10;1.85;;;8.30;80.00;;;;;;5077396;28;20036;-79
2023/02/01 08:49:48;;;;;;;3.53;1.65;;;8.30;80.10;;;;;;5076610;28;20117;-78
2023/02/01 08:52:14;;;;;;;5.93;2.75;;;8.30;80.00;;;;;;5094916;28;20020;-78
2023/02/01 08:54:41;;;;;;;3.85;2.10;;;8.30;80.00;;;;;;5095032;28;20545;-80
2023/02/01 08:57:07;;;;;;;4.13;2.00;;;8.30;80.00;;;;;;5076418;28;20028;-79
2023/02/01 08:59:33;;;;;;;3.72;1.90;;;8.30;80.00;;;;;;5076640;28;20036;-80
2023/02/01 09:01:58;;;;;;;3.08;1.80;;;8.30;80.00;;;;;;5059748;28;20024;-79
2023/02/01 09:04:24;;;;;;;5.00;1.83;;;8.30;80.00;;;;;;5093073;28;20064;-79
2023/02/01 09:06:50;;;;;;;3.55;1.92;;;8.30;80.00;;;;;;5076416;28;20062;-79
2023/02/01 09:09:16;;;;;;;4.22;1.80;;;8.40;80.10;;;;;;5059803;28;20078;-80
2023/02/01 09:11:41;;;;;;;2.80;1.70;;;8.40;80.00;;;;;;5059731;28;20081;-79
2023/02/01 09:14:10;;;;;;;3.10;1.90;;;8.40;80.00;;;;;;5094903;28;20476;-80
2023/02/01 09:16:36;;;;;;;2.70;1.73;;;8.40;80.00;;;;;;5094432;28;20067;-80
2023/02/01 09:19:02;;;;;;;3.85;1.70;;;8.40;80.00;;;;;;5075927;28;20028;-80
2023/02/01 09:21:28;;;;;;;3.35;1.92;;;8.40;80.00;;;;;;5076382;28;20028;-79
2023/02/01 09:23:54;;;;;;;4.38;1.90;;;8.40;80.00;;;;;;5075809;28;20028;-78
2023/02/01 09:26:19;;;;;;;3.75;1.73;;;8.50;80.00;;;;;;5075840;28;20043;-78
2023/02/01 09:28:45;;;;;;;3.53;1.55;;;8.40;80.00;;;;;;5075630;28;20035;-78
2023/02/01 09:31:11;;;;;;;4.32;2.13;;;8.50;80.00;;;;;;5075800;28;20024;-78
2023/02/01 09:33:37;;;;;;;2.45;1.77;;;8.50;80.00;;;;;;5075901;28;20058;-78
2023/02/01 09:36:04;;;;;;;4.05;1.88;;;8.50;80.00;;;;;;5075755;28;20028;-79
2023/02/01 09:38:31;;;;;;;3.92;1.73;;;8.50;80.00;;;;;;5075701;28;20024;-78
2023/02/01 09:40:58;;;;;;;3.03;1.90;;;8.50;80.00;;;;;;5094098;28;20111;-79
2023/02/01 09:43:44;;;;;;;3.60;1.80;;;8.50;80.00;;;;;;5075691;28;20048;-79
2023/02/01 09:46:23;;;;;;;3.85;2.20;;;8.50;80.00;;;;;;5076171;28;20055;-79
2023/02/01 09:48:58;;;;;;;4.45;1.90;;;8.60;80.00;;;;;;5076038;28;20036;-81
2023/02/01 09:51:28;;;;;;;3.50;1.98;;;8.60;80.00;;;;;;5093736;28;20024;-80
2023/02/01 09:54:06;;;;;;;3.60;1.88;;;8.60;80.00;;;;;;5094059;28;20028;-80
2023/02/01 09:57:08;;;;;;;3.03;1.90;;;8.60;80.00;;;;;;5075430;28;20024;-79
2023/02/01 09:59:43;;;;;;;4.85;1.83;;;8.60;80.10;;;;;;5075490;28;20469;-79
2023/02/01 10:02:19;;;;;;;2.65;1.70;;;8.70;80.00;;;;;;5075948;28;20487;-79
2023/02/01 10:04:46;;;;;;;2.55;1.83;;;8.70;80.00;;;;;;5076813;28;20028;-80
2023/02/01 10:07:18;;;;;;;3.20;1.83;;;8.70;80.00;;;;;;5075469;28;20099;-80
2023/02/01 10:09:58;;;;;;;5.32;2.55;;;8.70;80.00;;;;;;5075814;28;20111;-80
2023/02/01 10:12:49;;;;;;;4.47;2.05;;;8.70;80.00;;;;;;5076231;28;20028;-79
2023/02/01 10:15:26;;;;;;;2.78;1.70;;;8.80;80.10;;;;;;5075831;28;20039;-78
2023/02/01 10:18:04;;;;;;;4.97;2.25;;;8.80;80.00;;;;;;5093465;28;20472;-80
2023/02/01 10:20:48;;;;;;;5.97;2.10;;;8.80;80.10;;;;;;5059087;28;20064;-79
2023/02/01 10:23:23;;;;;;;4.13;1.85;;;8.80;80.00;;;;;;5075323;28;20043;-80
2023/02/01 10:25:56;;;;;;;3.80;2.08;;;8.80;80.00;;;;;;5075454;28;20039;-80
2023/02/01 10:28:24;;;;;;;5.07;1.98;;;8.90;80.00;;;;;;5075582;28;20077;-79
2023/02/01 10:30:56;;;;;;;2.55;1.70;;;8.90;80.00;;;;;;5075270;28;20150;-80
2023/02/01 10:33:34;;;;;;;3.92;2.17;;;8.90;80.00;;;;;;5058842;28;20505;-79
2023/02/01 10:36:06;;;;;;;4.13;2.05;;;8.90;80.00;;;;;;5093240;28;20067;-80
2023/02/01 10:38:33;;;;;;;4.47;1.90;;;8.90;80.00;;;;;;5093146;28;20028;-78
2023/02/01 10:41:11;;;;;;;4.40;2.00;;;9.00;80.00;;;;;;5075121;28;20478;-79
2023/02/01 10:43:39;;;;;;;4.85;2.17;;;9.00;80.00;;;;;;5053003;28;20110;-79
2023/02/01 10:46:06;;;;;;;5.45;2.22;;;9.00;79.90;;;;;;5035348;28;20102;-78
2023/02/01 10:48:32;;;;;;;4.45;1.98;;;9.00;80.00;;;;;;5051684;28;20041;-79
2023/02/01 10:51:15;;;;;;;4.85;2.45;;;9.00;80.00;;;;;;5052782;28;20468;-79
2023/02/01 10:53:55;;;;;;;4.57;2.00;;;9.00;80.00;;;;;;5052015;28;20124;-79
2023/02/01 10:56:26;;;;;;;4.43;1.95;;;9.10;80.00;;;;;;5052791;28;20385;-79
2023/02/01 10:59:06;;;;;;;5.15;2.08;;;9.10;79.90;;;;;;5035023;28;20025;-79
2023/02/01 11:01:39;;;;;;;3.63;2.05;;;9.10;79.90;;;;;;5051854;28;20029;-79
2023/02/01 11:04:10;;;;;;;3.05;1.80;;;9.10;79.90;;;;;;5053918;28;20049;-79
2023/02/01 11:06:38;;;;;;;5.40;2.15;;;9.10;80.50;;;;;;5055128;28;20076;-80
2023/02/01 11:09:07;;;;;;;5.50;1.90;;;9.10;80.30;;;;;;5055214;28;20017;-79
2023/02/01 11:11:53;;;;;;;5.05;2.00;;;9.10;79.90;;;;;;5056701;28;20442;-78
2023/02/01 11:14:31;;;;;;;4.57;2.15;;;9.10;79.90;;;;;;5055718;28;20490;-79
2023/02/01 11:17:00;;;;;;;3.95;2.25;;;9.20;79.90;;;;;;5055226;28;20104;-80
2023/02/01 11:19:27;;;;;;;4.43;2.15;;;9.20;79.90;;;;;;5055548;28;20021;-80
2023/02/01 11:21:56;;;;;;;4.60;2.30;;;9.20;79.90;;;;;;5055940;28;20363;-80
2023/02/01 11:24:21;;;;;;;3.25;2.13;;;9.20;79.90;;;;;;5055052;28;20476;-79
2023/02/01 11:26:47;;;;;;;4.55;2.17;;;9.20;79.90;;;;;;5054839;28;20041;-80
2023/02/01 11:29:19;;;;;;;4.68;1.88;;;9.20;79.90;;;;;;5038677;28;20135;-80
2023/02/01 11:31:45;;;;;;;4.32;2.20;;;9.20;79.90;;;;;;5055107;28;20472;-80
2023/02/01 11:34:17;;;;;;;6.40;2.33;;;9.20;79.90;;;;;;5038215;28;20377;-80
2023/02/01 11:36:46;;;;;;;4.78;2.40;;;9.20;79.90;;;;;;5054809;28;20029;-80
2023/02/01 11:39:15;;;;;;;5.20;2.10;;;9.20;79.90;;;;;;5054838;28;20029;-81
2023/02/01 11:42:16;;;;;;;5.93;1.90;;;9.20;79.90;;;;;;5042141;28;20033;-80
2023/02/01 11:44:44;;;;;;;5.22;2.00;;;9.30;79.90;;;;;;5078149;28;20052;-80
2023/02/01 11:47:21;;;;;;;4.60;1.90;;;9.30;79.90;;;;;;5078014;28;20071;-81
2023/02/01 11:49:49;;;;;;;5.15;2.55;;;9.30;79.90;;;;;;5078153;28;20028;-81
2023/02/01 11:52:31;;;;;;;6.20;2.03;;;9.30;79.90;;;;;;5078052;28;20024;-85
2023/02/01 11:55:30;;;;;;;5.72;2.20;;;9.30;79.90;;;;;;5095796;28;20020;-79
2023/02/01 11:57:56;;;;;;;5.25;2.22;;;9.30;79.90;;;;;;5077708;28;20043;-79
2023/02/01 12:01:19;;;;;;;4.57;1.80;;;9.30;79.80;;;;;;5061676;28;20024;-78
2023/02/01 12:03:50;;;;;;;4.65;1.88;;;9.30;79.90;;;;;;5016564;28;20037;-79
2023/02/01 12:06:25;;;;;;;5.38;1.95;;;9.30;79.80;;;;;;5033529;28;20473;-81
2023/02/01 12:08:58;;;;;;;5.32;2.10;;;9.30;79.80;;;;;;5034403;28;20134;-79
2023/02/01 12:11:27;;;;;;;6.57;2.20;;;9.30;79.80;;;;;;5077833;28;20031;-82
2023/02/01 12:14:17;;;;;;;3.42;1.65;;;9.30;79.80;;;;;;5077795;28;20107;-81
2023/02/01 12:16:59;;;;;;;5.38;2.05;;;9.30;79.80;;;;;;5078648;28;20039;-81
2023/02/01 12:19:51;;;;;;;5.53;2.20;;;9.30;79.80;;;;;;5061006;28;20028;-80
2023/02/01 12:22:49;;;;;;;5.65;2.22;;;9.30;79.80;;;;;;5095735;28;20028;-79
2023/02/01 12:25:33;;;;;;;4.07;1.95;;;9.30;79.90;;;;;;5076944;28;20380;-79
2023/02/01 12:28:01;;;;;;;3.00;1.90;;;9.40;79.90;;;;;;5076857;28;20070;-79
2023/02/01 12:30:53;;;;;;;2.67;1.80;;;9.30;79.80;;;;;;5076681;28;20020;-80
2023/02/01 12:33:40;;;;;;;4.97;2.30;;;9.40;79.90;;;;;;5077294;28;20392;-80
2023/02/01 12:36:06;;;;;;;4.70;2.05;;;9.40;79.90;;;;;;5077426;28;20034;-79
2023/02/01 12:38:50;;;;;;;4.68;1.90;;;9.40;79.90;;;;;;5076816;28;20032;-79
2023/02/01 12:41:33;;;;;;;3.83;2.05;;;9.30;79.80;;;;;;5060449;28;20028;-80
2023/02/01 12:44:08;;;;;;;6.25;2.20;;;9.40;79.90;;;;;;5076608;28;20028;-80
2023/02/01 12:46:38;;;;;;;5.25;2.38;;;9.40;79.90;;;;;;5076279;28;20032;-79
2023/02/01 12:49:14;;;;;;;4.10;2.08;;;9.40;79.80;;;;;;5077243;28;20031;-80
2023/02/01 12:51:44;;;;;;;4.30;2.15;;;9.40;79.90;;;;;;5094283;28;20620;-79
2023/02/01 12:54:13;;;;;;;3.95;1.92;;;9.40;79.90;;;;;;5076781;28;20024;-80
2023/02/01 12:56:49;;;;;;;3.13;1.65;;;9.50;79.90;;;;;;5076685;28;20092;-79
2023/02/01 12:59:49;;;;;;;4.43;1.90;;;9.50;79.90;;;;;;5094202;28;20081;-78
2023/02/01 13:02:24;;;;;;;3.80;1.67;;;9.40;79.90;;;;;;5076505;28;20115;-78
2023/02/01 13:05:03;;;;;;;5.32;2.00;;;9.40;79.80;;;;;;5076298;28;20071;-80
2023/02/01 13:07:39;;;;;;;4.97;2.00;;;9.50;79.80;;;;;;5076979;28;20475;-80
2023/02/01 13:11:06;;;;;;;2.58;1.70;;;9.50;79.80;;;;;;5076165;28;20032;-79
2023/02/01 13:14:00;;;;;;;4.07;1.90;;;9.50;79.80;;;;;;5031825;28;20075;-79
2023/02/01 13:16:37;;;;;;;4.70;2.15;;;9.50;79.80;;;;;;4999435;28;20025;-80
2023/02/01 13:19:36;;;;;;;3.88;2.00;;;9.50;79.70;;;;;;5060225;28;20032;-80
2023/02/01 13:22:11;;;;;;;3.45;1.80;;;9.50;79.80;;;;;;5076136;28;20020;-79
2023/02/01 13:24:50;;;;;;;5.22;2.20;;;9.50;79.70;;;;;;5076121;28;20392;-80
2023/02/01 13:27:17;;;;;;;4.97;2.00;;;9.60;79.80;;;;;;5075541;28;20086;-80
2023/02/01 13:30:12;;;;;;;4.22;1.90;;;9.50;79.70;;;;;;5075584;28;20111;-79
2023/02/01 13:32:49;;;;;;;3.30;1.98;;;9.60;79.80;;;;;;5037422;28;20040;-80
2023/02/01 13:35:41;;;;;;;4.43;1.90;;;9.60;79.70;;;;;;5076709;28;20465;-76
2023/02/01 13:38:39;;;;;;;4.75;1.80;;;9.60;79.80;;;;;;5069127;28;20075;-79
2023/02/01 13:41:29;;;;;;;4.13;2.20;;;9.60;79.80;;;;;;5058947;28;20081;-78
2023/02/01 13:44:01;;;;;;;5.55;1.95;;;9.60;79.70;;;;;;5075933;28;20132;-79
2023/02/01 13:46:28;;;;;;;3.72;2.00;;;9.60;79.70;;;;;;5094014;28;20065;-78
2023/02/01 13:49:04;;;;;;;3.22;1.88;;;9.60;79.70;;;;;;5058867;28;20518;-77
2023/02/01 13:51:40;;;;;;;2.40;1.77;;;9.70;79.80;;;;;;5075108;28;20040;-78